createdAt,value
2019-04-29T00:01:24.740Z,3.02
2019-04-29T00:03:52.103Z,2.90
2019-04-29T00:06:19.619Z,2.80
2019-04-29T00:08:47.180Z,3.10
2019-04-29T00:11:14.413Z,3.40
2019-04-29T00:13:41.782Z,3.08
2019-04-29T00:16:29.248Z,3.40
2019-04-29T00:19:16.130Z,3.27
2019-04-29T00:21:43.494Z,3.52
2019-04-29T00:24:10.848Z,3.47
2019-04-29T00:26:38.297Z,3.50
2019-04-29T00:29:05.662Z,3.25
2019-04-29T00:31:33.114Z,3.67
2019-04-29T00:34:00.492Z,3.65
2019-04-29T00:36:31.922Z,3.85
2019-04-29T00:39:24.514Z,3.85
2019-04-29T00:42:09.949Z,3.65
2019-04-29T00:44:37.269Z,3.75
2019-04-29T00:47:04.639Z,3.60
2019-04-29T00:49:31.874Z,4.05
2019-04-29T00:51:59.260Z,3.75
2019-04-29T00:54:33.346Z,4.20
2019-04-29T00:57:00.627Z,4.05
2019-04-29T00:59:27.945Z,5.53
2019-04-29T01:01:55.319Z,4.17
2019-04-29T01:04:22.674Z,4.25
2019-04-29T01:06:50.037Z,4.62
2019-04-29T01:09:17.794Z,4.53
2019-04-29T01:11:45.232Z,5.42
2019-04-29T01:14:12.531Z,5.70
2019-04-29T01:16:39.857Z,4.95
2019-04-29T01:19:07.193Z,5.50
2019-04-29T01:21:34.465Z,5.83
2019-04-29T01:24:01.793Z,5.97
2019-04-29T01:26:54.471Z,6.40
2019-04-29T01:29:22.550Z,5.80
2019-04-29T01:31:49.869Z,5.40
2019-04-29T01:34:22.185Z,5.50
2019-04-29T01:36:49.575Z,5.05
2019-04-29T01:39:17.153Z,5.28
2019-04-29T01:42:01.918Z,5.62
2019-04-29T01:44:30.873Z,5.08
2019-04-29T01:46:58.211Z,4.87
2019-04-29T01:49:25.464Z,4.58
2019-04-29T01:51:52.782Z,5.35
2019-04-29T01:54:20.188Z,5.47
2019-04-29T01:56:47.577Z,5.47
2019-04-29T01:59:14.961Z,5.22
2019-04-29T02:01:42.386Z,5.33
2019-04-29T02:04:09.795Z,5.35
2019-04-29T02:06:37.035Z,5.92
2019-04-29T02:09:09.935Z,5.90
2019-04-29T02:11:36.487Z,5.22
2019-04-29T02:14:03.872Z,5.17
2019-04-29T02:16:31.225Z,5.62
2019-04-29T02:18:58.585Z,5.30
2019-04-29T02:21:25.933Z,5.42
2019-04-29T02:24:15.509Z,5.90
2019-04-29T02:26:42.876Z,5.67
2019-04-29T02:29:10.326Z,5.40
2019-04-29T02:31:37.680Z,5.83
2019-04-29T02:34:08.156Z,5.58
2019-04-29T02:36:35.579Z,6.17
2019-04-29T02:39:33.556Z,6.40
2019-04-29T02:42:20.806Z,5.35
2019-04-29T02:44:49.168Z,6.72
2019-04-29T02:47:16.513Z,6.55
2019-04-29T02:49:43.863Z,8.13
2019-04-29T02:52:11.227Z,9.23
2019-04-29T02:54:38.750Z,7.40
2019-04-29T02:57:25.831Z,8.53
2019-04-29T02:59:57.436Z,8.20
2019-04-29T03:02:32.834Z,8.70
2019-04-29T03:05:17.537Z,8.53
2019-04-29T03:07:44.901Z,9.33
2019-04-29T03:10:12.313Z,8.33
2019-04-29T03:12:39.739Z,8.50
2019-04-29T03:15:07.278Z,8.75
2019-04-29T03:17:34.514Z,8.35
2019-04-29T03:20:27.396Z,8.08
2019-04-29T03:23:12.394Z,7.97
2019-04-29T03:25:39.859Z,7.58
2019-04-29T03:28:07.176Z,8.23
2019-04-29T03:30:34.516Z,7.20
2019-04-29T03:33:01.785Z,7.47
2019-04-29T03:35:29.164Z,7.28
2019-04-29T03:37:56.507Z,6.75
2019-04-29T03:40:23.740Z,7.35
2019-04-29T03:42:51.064Z,7.35
2019-04-29T03:45:18.461Z,7.03
2019-04-29T03:47:45.857Z,7.37
2019-04-29T03:50:13.173Z,7.42
2019-04-29T03:52:40.530Z,6.67
2019-04-29T03:55:08.495Z,6.65
2019-04-29T03:57:36.734Z,6.37
2019-04-29T04:00:04.852Z,6.60
2019-04-29T04:02:41.680Z,5.92
2019-04-29T04:05:28.561Z,6.37
2019-04-29T04:08:03.490Z,5.65
2019-04-29T04:10:30.924Z,5.42
2019-04-29T04:12:58.285Z,6.37
2019-04-29T04:15:25.751Z,5.83
2019-04-29T04:18:01.319Z,6.08
2019-04-29T04:20:28.686Z,6.10
2019-04-29T04:22:56.066Z,5.85
2019-04-29T04:25:23.480Z,5.90
2019-04-29T04:27:50.911Z,6.60
2019-04-29T04:30:18.699Z,7.92
2019-04-29T04:32:46.033Z,9.15
2019-04-29T04:35:13.511Z,9.08
2019-04-29T04:37:40.870Z,8.68
2019-04-29T04:40:10.682Z,9.20
2019-04-29T04:42:38.052Z,8.68
2019-04-29T04:45:05.630Z,8.30
2019-04-29T04:47:32.972Z,9.18
2019-04-29T04:50:00.211Z,8.48
2019-04-29T04:52:27.582Z,8.33
2019-04-29T04:54:55.400Z,8.05
2019-04-29T04:57:22.769Z,8.25
2019-04-29T04:59:50.140Z,8.70
2019-04-29T05:02:17.538Z,7.75
2019-04-29T05:04:44.770Z,8.08
2019-04-29T05:07:12.159Z,7.85
2019-04-29T05:09:39.516Z,8.28
2019-04-29T05:12:06.854Z,7.97
2019-04-29T05:14:34.242Z,7.45
2019-04-29T05:17:01.536Z,7.08
2019-04-29T05:19:28.765Z,6.85
2019-04-29T05:21:56.026Z,6.95
2019-04-29T05:24:23.397Z,7.22
2019-04-29T05:26:50.741Z,6.97
2019-04-29T05:29:18.057Z,6.95
2019-04-29T05:31:45.377Z,6.75
2019-04-29T05:34:14.217Z,7.17
2019-04-29T05:36:54.490Z,6.95
2019-04-29T05:39:28.009Z,6.97
2019-04-29T05:41:55.325Z,7.58
2019-04-29T05:44:31.839Z,8.05
2019-04-29T05:47:08.257Z,8.10
2019-04-29T05:49:53.590Z,7.33
2019-04-29T05:52:30.054Z,8.33
2019-04-29T05:54:57.600Z,7.37
2019-04-29T05:57:25.630Z,9.13
2019-04-29T05:59:54.241Z,8.38
2019-04-29T06:02:24.014Z,8.78
2019-04-29T06:04:52.396Z,7.55
2019-04-29T06:07:21.526Z,8.18
2019-04-29T06:09:49.235Z,8.68
2019-04-29T06:12:16.664Z,6.95
2019-04-29T06:14:43.987Z,7.80
2019-04-29T06:17:11.393Z,7.67
2019-04-29T06:19:39.254Z,7.35
2019-04-29T06:22:08.025Z,7.00
2019-04-29T06:24:36.955Z,7.40
2019-04-29T06:27:04.782Z,7.83
2019-04-29T06:29:32.118Z,6.87
2019-04-29T06:31:59.751Z,6.97
2019-04-29T06:34:27.145Z,7.50
2019-04-29T06:36:54.556Z,7.03
2019-04-29T06:39:21.814Z,8.53
2019-04-29T06:41:49.248Z,8.75
2019-04-29T06:44:17.016Z,8.40
2019-04-29T06:46:44.402Z,9.17
2019-04-29T06:49:11.782Z,8.60
2019-04-29T06:51:39.181Z,7.70
2019-04-29T06:54:06.418Z,8.37
2019-04-29T06:56:33.774Z,9.23
2019-04-29T06:59:01.160Z,8.67
2019-04-29T07:01:28.494Z,8.10
2019-04-29T07:03:59.743Z,8.73
2019-04-29T07:06:25.090Z,8.83
2019-04-29T07:08:52.451Z,9.00
2019-04-29T07:11:19.964Z,8.17
2019-04-29T07:13:47.430Z,7.80
2019-04-29T07:16:16.973Z,8.13
2019-04-29T07:18:48.333Z,7.80
2019-04-29T07:21:13.156Z,8.30
2019-04-29T07:23:40.499Z,8.83
2019-04-29T07:26:08.021Z,8.23
2019-04-29T07:28:35.433Z,8.97
2019-04-29T07:31:03.249Z,9.27
2019-04-29T07:33:30.631Z,8.97
2019-04-29T07:36:10.361Z,8.93
2019-04-29T07:38:40.138Z,9.40
2019-04-29T07:40:56.383Z,9.47
2019-04-29T07:43:23.681Z,9.63
2019-04-29T07:46:10.603Z,9.83
2019-04-29T07:48:41.821Z,9.00
2019-04-29T07:51:07.179Z,9.60
2019-04-29T07:53:44.473Z,8.97
2019-04-29T07:56:06.239Z,9.83
2019-04-29T07:58:32.857Z,9.47
2019-04-29T08:01:00.193Z,9.63
2019-04-29T08:03:27.577Z,8.83
2019-04-29T08:05:55.647Z,9.20
2019-04-29T08:08:23.489Z,8.93
2019-04-29T08:10:56.051Z,8.53
2019-04-29T08:13:21.407Z,9.17
2019-04-29T08:15:48.783Z,9.43
2019-04-29T08:18:18.100Z,9.27
2019-04-29T08:20:45.350Z,8.80
2019-04-29T08:23:12.751Z,8.77
2019-04-29T08:25:40.196Z,10.00
2019-04-29T08:28:07.580Z,12.40
2019-04-29T08:30:34.833Z,11.83
2019-04-29T08:33:02.171Z,12.07
2019-04-29T08:35:32.758Z,14.53
2019-04-29T08:37:58.878Z,13.73
2019-04-29T08:40:26.205Z,14.20
2019-04-29T08:43:05.434Z,14.67
2019-04-29T08:45:42.370Z,13.97
2019-04-29T08:48:09.694Z,14.20
2019-04-29T08:50:37.038Z,15.40
2019-04-29T08:53:04.826Z,14.83
2019-04-29T08:55:35.988Z,14.30
2019-04-29T08:58:01.446Z,14.07
2019-04-29T09:00:28.686Z,13.07
2019-04-29T09:02:56.014Z,14.30
2019-04-29T09:05:23.415Z,13.10
2019-04-29T09:07:52.500Z,12.73
2019-04-29T09:10:20.140Z,12.40
2019-04-29T09:12:47.687Z,11.80
2019-04-29T09:15:15.441Z,10.57
2019-04-29T09:17:42.676Z,12.07
2019-04-29T09:20:10.340Z,14.00
2019-04-29T09:22:40.619Z,13.07
2019-04-29T09:25:42.441Z,11.63
2019-04-29T09:28:15.110Z,10.67
2019-04-29T09:30:40.230Z,9.30
2019-04-29T09:33:08.680Z,7.77
2019-04-29T09:35:38.851Z,9.80
2019-04-29T09:38:06.144Z,8.83
2019-04-29T09:40:37.592Z,8.00
2019-04-29T09:43:15.676Z,6.17
2019-04-29T09:45:48.748Z,8.50
2019-04-29T09:48:15.954Z,9.47
2019-04-29T09:50:43.366Z,8.93
2019-04-29T09:53:11.120Z,9.10
2019-04-29T09:55:40.104Z,9.37
2019-04-29T09:58:07.659Z,7.57
2019-04-29T10:00:54.504Z,9.77
2019-04-29T10:03:33.611Z,11.37
2019-04-29T10:06:08.644Z,12.37
2019-04-29T10:08:35.969Z,11.13
2019-04-29T10:11:03.733Z,9.20
2019-04-29T10:13:31.121Z,11.57
2019-04-29T10:16:17.330Z,11.67
2019-04-29T10:19:00.619Z,12.20
2019-04-29T10:21:26.857Z,13.63
2019-04-29T10:23:54.264Z,13.53
2019-04-29T10:26:21.604Z,14.13
2019-04-29T10:29:01.927Z,12.03
2019-04-29T10:31:29.277Z,11.13
2019-04-29T10:33:56.639Z,11.43
2019-04-29T10:36:26.202Z,10.67
2019-04-29T10:38:54.971Z,10.40
2019-04-29T10:41:36.164Z,10.20
2019-04-29T10:44:24.290Z,10.10
2019-04-29T10:47:04.969Z,10.03
2019-04-29T10:49:39.243Z,10.23
2019-04-29T10:52:05.877Z,11.77
2019-04-29T10:54:33.231Z,12.47
2019-04-29T10:57:01.191Z,11.30
2019-04-29T10:59:35.874Z,12.57
2019-04-29T11:02:30.377Z,12.67
2019-04-29T11:05:07.907Z,12.90
2019-04-29T11:07:38.593Z,11.77
2019-04-29T11:10:24.807Z,10.67
2019-04-29T11:12:43.831Z,9.83
2019-04-29T11:15:14.083Z,8.33
2019-04-29T11:17:44.624Z,8.70
2019-04-29T11:20:11.171Z,8.47
2019-04-29T11:22:44.728Z,9.30
2019-04-29T11:25:40.395Z,8.10
2019-04-29T11:28:07.642Z,9.67
2019-04-29T11:30:39.580Z,9.53
2019-04-29T11:33:12.185Z,9.13
2019-04-29T11:35:43.959Z,7.67
2019-04-29T11:38:11.530Z,7.93
2019-04-29T11:40:43.670Z,7.10
2019-04-29T11:43:10.962Z,8.93
2019-04-29T11:45:40.027Z,10.23
2019-04-29T11:48:07.583Z,11.27
2019-04-29T11:50:45.194Z,12.00
2019-04-29T11:53:14.206Z,11.27
2019-04-29T11:55:44.593Z,11.23
2019-04-29T11:58:24.538Z,10.70
2019-04-29T12:01:10.212Z,10.07
2019-04-29T12:03:38.890Z,9.90
2019-04-29T12:06:07.993Z,11.27
2019-04-29T12:08:35.338Z,11.23
2019-04-29T12:11:07.188Z,10.37
2019-04-29T12:13:42.309Z,10.47
2019-04-29T12:16:40.792Z,9.73
2019-04-29T12:19:12.952Z,9.10
2019-04-29T12:21:40.441Z,8.97
2019-04-29T12:24:08.103Z,8.73
2019-04-29T12:26:43.173Z,7.43
2019-04-29T12:29:04.695Z,8.43
2019-04-29T12:31:44.806Z,7.80
2019-04-29T12:34:39.201Z,7.80
2019-04-29T12:37:16.313Z,7.73
2019-04-29T12:40:01.645Z,7.10
2019-04-29T12:42:55.208Z,5.97
2019-04-29T12:45:26.480Z,5.87
2019-04-29T12:47:53.888Z,6.00
2019-04-29T12:50:22.840Z,7.03
2019-04-29T12:52:50.411Z,7.83
2019-04-29T12:55:39.577Z,7.33
2019-04-29T12:57:51.662Z,6.83
2019-04-29T13:00:23.967Z,6.50
2019-04-29T13:03:00.270Z,6.47
2019-04-29T13:05:58.390Z,6.33
2019-04-29T13:08:25.737Z,6.97
2019-04-29T13:10:55.512Z,6.80
2019-04-29T13:13:22.860Z,7.30
2019-04-29T13:16:20.018Z,8.03
2019-04-29T13:19:20.150Z,7.43
2019-04-29T13:21:44.756Z,7.67
2019-04-29T13:24:22.947Z,7.43
2019-04-29T13:26:42.982Z,7.77
2019-04-29T13:29:25.868Z,7.17
2019-04-29T13:31:40.091Z,7.83
2019-04-29T13:34:23.607Z,7.63
2019-04-29T13:36:38.739Z,8.13
2019-04-29T13:39:07.637Z,7.90
2019-04-29T13:41:35.163Z,8.03
2019-04-29T13:44:05.548Z,8.90
2019-04-29T13:46:50.959Z,9.27
2019-04-29T13:49:46.785Z,10.23
2019-04-29T13:52:13.517Z,9.03
2019-04-29T13:54:42.343Z,8.67
2019-04-29T13:57:15.653Z,9.10
2019-04-29T14:00:11.787Z,9.67
2019-04-29T14:02:58.486Z,9.97
2019-04-29T14:05:18.925Z,11.10
2019-04-29T14:07:48.742Z,11.03
2019-04-29T14:10:16.788Z,10.20
2019-04-29T14:12:50.337Z,10.47
2019-04-29T14:15:13.794Z,11.27
2019-04-29T14:17:41.331Z,9.63
2019-04-29T14:20:10.836Z,9.63
2019-04-29T14:22:38.405Z,9.17
2019-04-29T14:25:06.009Z,9.43
2019-04-29T14:27:33.371Z,10.47
2019-04-29T14:30:02.952Z,10.03
2019-04-29T14:32:36.030Z,9.27
2019-04-29T14:35:12.976Z,9.40
2019-04-29T14:37:54.094Z,9.23
2019-04-29T14:40:09.853Z,9.10
2019-04-29T14:42:57.845Z,10.13
2019-04-29T14:45:46.979Z,9.00
2019-04-29T14:48:25.336Z,9.00
2019-04-29T14:50:54.140Z,9.40
2019-04-29T14:53:24.399Z,8.93
2019-04-29T14:55:51.248Z,9.27
2019-04-29T14:58:18.619Z,9.60
2019-04-29T15:01:24.022Z,9.40
2019-04-29T15:03:59.792Z,8.10
2019-04-29T15:06:29.012Z,7.60
2019-04-29T15:08:56.811Z,8.20
2019-04-29T15:11:31.983Z,8.20
2019-04-29T15:14:03.138Z,7.60
2019-04-29T15:16:35.840Z,7.03
2019-04-29T15:19:21.421Z,7.57
2019-04-29T15:21:56.351Z,9.13
2019-04-29T15:24:27.561Z,7.10
2019-04-29T15:26:53.092Z,7.67
2019-04-29T15:29:20.506Z,7.40
2019-04-29T15:31:48.950Z,7.63
2019-04-29T15:34:16.503Z,7.30
2019-04-29T15:36:43.878Z,7.03
2019-04-29T15:39:12.167Z,6.80
2019-04-29T15:41:40.058Z,7.40
2019-04-29T15:44:09.044Z,7.50
2019-04-29T15:46:46.283Z,7.80
2019-04-29T15:49:06.081Z,8.50
2019-04-29T15:51:33.515Z,8.43
2019-04-29T15:54:00.988Z,8.90
2019-04-29T15:56:33.376Z,9.10
2019-04-29T15:58:59.518Z,8.40
2019-04-29T16:01:29.736Z,8.67
2019-04-29T16:03:58.090Z,8.80
2019-04-29T16:06:45.878Z,8.67
2019-04-29T16:09:52.131Z,8.97
2019-04-29T16:12:23.745Z,7.47
2019-04-29T16:14:51.122Z,7.17
2019-04-29T16:17:20.658Z,6.33
2019-04-29T16:19:47.878Z,5.90
2019-04-29T16:22:19.767Z,5.97
2019-04-29T16:24:44.498Z,6.50
2019-04-29T16:27:11.889Z,6.00
2019-04-29T16:29:39.343Z,6.03
2019-04-29T16:32:08.686Z,6.63
2019-04-29T16:34:37.388Z,6.40
2019-04-29T16:37:05.351Z,6.50
2019-04-29T16:39:33.032Z,6.60
2019-04-29T16:42:18.395Z,6.37
2019-04-29T16:44:46.017Z,6.27
2019-04-29T16:47:15.603Z,6.00
2019-04-29T16:49:43.407Z,6.37
2019-04-29T16:52:10.846Z,9.63
2019-04-29T16:54:38.184Z,7.40
2019-04-29T16:57:05.673Z,5.80
2019-04-29T16:59:32.977Z,6.10
2019-04-29T17:02:00.453Z,6.03
2019-04-29T17:04:27.706Z,6.30
2019-04-29T17:07:11.712Z,6.20
2019-04-29T17:09:42.968Z,5.30
2019-04-29T17:12:10.643Z,7.27
2019-04-29T17:15:02.288Z,6.40
2019-04-29T17:17:11.209Z,5.63
2019-04-29T17:19:38.585Z,5.30
2019-04-29T17:22:24.819Z,5.30
2019-04-29T17:24:35.926Z,4.97
2019-04-29T17:27:25.593Z,5.50
2019-04-29T17:30:11.028Z,4.73
2019-04-29T17:32:54.899Z,4.87
2019-04-29T17:37:51.387Z,3.97
2019-04-29T17:40:20.513Z,4.13
2019-04-29T17:42:54.355Z,4.30
2019-04-29T17:45:31.053Z,4.37
2019-04-29T17:48:08.788Z,4.13
2019-04-29T17:50:46.461Z,3.80
2019-04-29T17:53:31.699Z,4.40
2019-04-29T17:56:08.201Z,4.37
2019-04-29T17:58:43.900Z,4.03
2019-04-29T18:01:42.807Z,4.17
2019-04-29T18:04:25.629Z,3.70
2019-04-29T18:07:08.325Z,3.90
2019-04-29T18:09:57.579Z,3.97
2019-04-29T18:12:25.100Z,6.60
2019-04-29T18:14:52.596Z,4.53
2019-04-29T18:17:26.913Z,6.13
2019-04-29T18:20:01.134Z,4.20
2019-04-29T18:22:54.793Z,4.00
2019-04-29T18:25:44.846Z,4.07
2019-04-29T18:28:12.257Z,4.17
2019-04-29T18:30:39.624Z,3.97
2019-04-29T18:33:07.007Z,4.70
2019-04-29T18:35:35.800Z,4.67
2019-04-29T18:38:03.401Z,4.13
2019-04-29T18:40:35.506Z,4.27
2019-04-29T18:42:59.995Z,3.90
2019-04-29T18:45:29.637Z,4.30
2019-04-29T18:47:58.149Z,3.83
2019-04-29T18:50:25.518Z,3.27
2019-04-29T18:52:52.956Z,4.03
2019-04-29T18:55:20.297Z,4.03
2019-04-29T18:57:47.689Z,4.17
2019-04-29T19:00:19.467Z,4.13
2019-04-29T19:02:46.087Z,4.10
2019-04-29T19:05:26.373Z,4.10
2019-04-29T19:08:00.086Z,4.80
2019-04-29T19:10:32.124Z,4.30
2019-04-29T19:13:00.000Z,4.20
2019-04-29T19:15:21.884Z,4.80
2019-04-29T19:17:58.677Z,4.37
2019-04-29T19:20:18.738Z,4.87
2019-04-29T19:22:47.333Z,4.70
2019-04-29T19:25:15.414Z,5.43
2019-04-29T19:27:42.824Z,5.30
2019-04-29T19:30:16.011Z,5.80
2019-04-29T19:32:40.545Z,5.50
2019-04-29T19:35:08.055Z,5.83
2019-04-29T19:37:37.583Z,5.63
2019-04-29T19:40:08.067Z,5.90
2019-04-29T19:42:36.006Z,6.67
2019-04-29T19:45:06.433Z,6.80
2019-04-29T19:47:36.048Z,6.77
2019-04-29T19:50:05.679Z,6.57
2019-04-29T19:52:34.841Z,6.73
2019-04-29T19:55:03.612Z,6.37
2019-04-29T19:57:31.025Z,7.20
2019-04-29T19:59:58.893Z,7.10
2019-04-29T20:02:26.917Z,7.73
2019-04-29T20:05:08.430Z,8.33
2019-04-29T20:07:41.427Z,8.50
2019-04-29T20:10:10.450Z,9.50
2019-04-29T20:12:38.326Z,10.13
2019-04-29T20:15:08.537Z,10.47
2019-04-29T20:17:58.029Z,10.80
2019-04-29T20:20:43.596Z,11.07
2019-04-29T20:23:11.242Z,10.87
2019-04-29T20:25:39.117Z,10.83
2019-04-29T20:28:08.886Z,12.33
2019-04-29T20:30:35.962Z,13.00
2019-04-29T20:33:09.448Z,12.27
2019-04-29T20:35:32.977Z,12.83
2019-04-29T20:38:00.672Z,12.37
2019-04-29T20:40:35.167Z,13.03
2019-04-29T20:42:57.447Z,12.97
2019-04-29T20:45:28.743Z,13.13
2019-04-29T20:47:55.914Z,12.77
2019-04-29T20:50:25.152Z,12.70
2019-04-29T20:53:05.514Z,13.50
2019-04-29T20:55:36.770Z,13.70
2019-04-29T20:58:03.929Z,13.53
2019-04-29T21:00:35.249Z,13.90
2019-04-29T21:03:04.088Z,16.23
2019-04-29T21:05:32.348Z,15.37
2019-04-29T21:08:03.382Z,14.83
2019-04-29T21:10:30.277Z,16.23
2019-04-29T21:13:29.158Z,15.90
2019-04-29T21:16:10.645Z,16.27
2019-04-29T21:18:38.842Z,16.00
2019-04-29T21:21:07.864Z,16.80
2019-04-29T21:23:36.617Z,16.80
2019-04-29T21:26:05.431Z,17.23
2019-04-29T21:28:38.230Z,17.20
2019-04-29T21:31:02.664Z,18.23
2019-04-29T21:33:31.264Z,19.00
2019-04-29T21:36:07.669Z,19.07
2019-04-29T21:39:04.052Z,17.87
2019-04-29T21:41:39.845Z,17.83
2019-04-29T21:44:07.261Z,18.67
2019-04-29T21:46:35.125Z,19.53
2019-04-29T21:49:06.775Z,19.33
2019-04-29T21:51:33.286Z,20.50
2019-04-29T21:54:00.729Z,21.83
2019-04-29T21:56:28.229Z,20.13
2019-04-29T21:58:56.761Z,20.23
2019-04-29T22:01:25.153Z,21.27
2019-04-29T22:03:52.517Z,20.90
2019-04-29T22:06:19.884Z,20.50
2019-04-29T22:08:47.151Z,21.60
2019-04-29T22:11:15.500Z,21.30
2019-04-29T22:13:45.284Z,21.37
2019-04-29T22:16:15.819Z,20.60
2019-04-29T22:18:44.637Z,20.27
2019-04-29T22:21:15.026Z,20.17
2019-04-29T22:23:44.339Z,20.50
2019-04-29T22:26:10.201Z,20.30
2019-04-29T22:28:37.519Z,19.93
2019-04-29T22:31:05.384Z,17.63
2019-04-29T22:33:38.334Z,18.10
2019-04-29T22:36:05.334Z,18.50
2019-04-29T22:38:32.931Z,18.73
2019-04-29T22:41:02.446Z,17.97
2019-04-29T22:43:40.363Z,17.73
2019-04-29T22:46:09.436Z,17.70
2019-04-29T22:48:34.983Z,17.73
2019-04-29T22:51:02.391Z,17.83
2019-04-29T22:53:29.648Z,18.57
2019-04-29T22:55:57.015Z,19.37
2019-04-29T22:58:24.938Z,17.50
2019-04-29T23:00:52.320Z,19.37
2019-04-29T23:03:19.550Z,18.30
2019-04-29T23:05:46.881Z,19.27
2019-04-29T23:08:15.209Z,19.07
2019-04-29T23:10:42.749Z,19.67
2019-04-29T23:13:10.029Z,19.20
2019-04-29T23:15:37.365Z,19.50
2019-04-29T23:18:05.154Z,19.77
2019-04-29T23:21:04.032Z,18.60
2019-04-29T23:23:39.380Z,20.00
2019-04-29T23:26:06.732Z,20.40
2019-04-29T23:28:35.603Z,21.33
2019-04-29T23:31:03.105Z,21.93
2019-04-29T23:33:30.546Z,21.30
2019-04-29T23:35:57.873Z,22.30
2019-04-29T23:38:25.541Z,23.13
2019-04-29T23:40:54.628Z,22.27
2019-04-29T23:43:25.316Z,21.57
2019-04-29T23:45:51.773Z,19.60
2019-04-29T23:48:23.844Z,21.33
2019-04-29T23:50:54.674Z,20.57
2019-04-29T23:53:20.784Z,19.87
2019-04-29T23:55:48.448Z,20.37
2019-04-29T23:58:23.472Z,21.33
